ADDS METAR Data INFO
IDs: Format: Raw Decoded Include TAF

Data at: 0735 UTC 18 Oct 2017

KRZL 180715Z AUTO 00000KT 10SM CLR 08/02 A3020 RMK AO2
KRZL 180655Z AUTO 00000KT 10SM CLR 07/02 A3020 RMK AO2
KRZL 180635Z AUTO 17004KT 10SM CLR 06/02 A3020 RMK AO2
KRZL 180615Z AUTO 18004KT 10SM CLR 07/02 A3020 RMK AO2
KRZL 180555Z AUTO 17003KT 10SM CLR 07/02 A3021 RMK AO2
KRZL 180535Z AUTO 16003KT 10SM CLR 08/02 A3021 RMK AO2
KRZL 180515Z AUTO 14003KT 10SM CLR 08/02 A3021 RMK AO2
KRZL 180455Z AUTO 00000KT 10SM CLR 08/02 A3021 RMK AO2
KRZL 180435Z AUTO 00000KT 10SM CLR 08/02 A3021 RMK AO2
KRZL 180415Z AUTO 18004KT 10SM CLR 10/01 A3021 RMK AO2
KRZL 180355Z AUTO 19005KT 10SM CLR 10/01 A3021 RMK AO2
KRZL 180335Z AUTO 20005KT 10SM CLR 10/01 A3021 RMK AO2
KRZL 180315Z AUTO 20007KT 10SM CLR 12/00 A3021 RMK AO2
KRZL 180255Z AUTO 19007KT 10SM CLR 11/00 A3021 RMK AO2
KRZL 180235Z AUTO 19007KT 10SM CLR 11/00 A3021 RMK AO2
KRZL 180215Z AUTO 20006KT 10SM CLR 12/00 A3021 RMK AO2
KRZL 180155Z AUTO 20006KT 10SM CLR 12/00 A3020 RMK AO2
KRZL 180135Z AUTO 20006KT 10SM CLR 12/00 A3020 RMK AO2
KRZL 180115Z AUTO 20007KT 10SM CLR 13/00 A3020 RMK AO2
KRZL 180055Z AUTO 20009KT 10SM CLR 13/00 A3020 RMK AO2
KRZL 180035Z AUTO 19006KT 10SM CLR 13/00 A3020 RMK AO2
KRZL 180015Z AUTO 19005KT 10SM CLR 13/00 A3020 RMK AO2
KRZL 172355Z AUTO 19006KT 10SM CLR 14/M01 A3019 RMK AO2
KRZL 172335Z AUTO 19005KT 10SM CLR 15/M02 A3019 RMK AO2
KRZL 172315Z AUTO 21007KT 10SM CLR 16/M03 A3018 RMK AO2
KRZL 172255Z AUTO 21008KT 10SM CLR 17/M04 A3018 RMK AO2
KRZL 172235Z AUTO 20009KT 10SM CLR 18/M05 A3018 RMK AO2
KRZL 172215Z AUTO 21009G15KT 10SM CLR 19/M05 A3018 RMK AO2
KRZL 172155Z AUTO 21011G14KT 10SM CLR 20/M06 A3018 RMK AO2
KRZL 172135Z AUTO 22013G17KT 10SM CLR 20/M06 A3018 RMK AO2
KRZL 172115Z AUTO 22013G17KT 10SM CLR 20/M07 A3019 RMK AO2
KRZL 172055Z AUTO 21011G18KT 10SM CLR 20/M07 A3019 RMK AO2
KRZL 172035Z AUTO 22011G18KT 10SM CLR 21/M06 A3019 RMK AO2
KRZL 172015Z AUTO 22013G17KT 10SM CLR 21/M06 A3020 RMK AO2
KRZL 171955Z AUTO 22014G18KT 10SM CLR 21/M06 A3020 RMK AO2
KRZL 171935Z AUTO 22011G21KT 10SM CLR 21/M05 A3021 RMK AO2
KRZL 171915Z AUTO 23015G20KT 10SM CLR 20/M05 A3021 RMK AO2
KRZL 171855Z AUTO 22011G20KT 10SM CLR 20/M05 A3021 RMK AO2
KRZL 171835Z AUTO 22018G22KT 10SM CLR 20/M05 A3022 RMK AO2
KRZL 171815Z AUTO 24016G20KT 10SM CLR 20/M05 A3023 RMK AO2
KRZL 171755Z AUTO 23016G22KT 10SM CLR 20/M03 A3023 RMK AO2
KRZL 171735Z AUTO 23016G24KT 10SM CLR 19/M03 A3024 RMK AO2
KRZL 171715Z AUTO 22016G22KT 10SM CLR 19/M03 A3025 RMK AO2
KRZL 171655Z AUTO 22015G21KT 10SM CLR 18/M03 A3026 RMK AO2
KRZL 171635Z AUTO 20017G21KT 10SM CLR 18/M03 A3027 RMK AO2
KRZL 171615Z AUTO 21015G23KT 10SM CLR 17/M03 A3027 RMK AO2
KRZL 171555Z AUTO 22011KT 10SM CLR 17/M02 A3027 RMK AO2
KRZL 171535Z AUTO 22012G21KT 10SM CLR 16/M01 A3027 RMK AO2
KRZL 171515Z AUTO 22015G23KT 10SM CLR 15/M01 A3028 RMK AO2
KRZL 171455Z AUTO 21013G17KT 10SM CLR 15/00 A3029 RMK AO2
KRZL 171435Z AUTO 21010G18KT 10SM CLR 13/01 A3029 RMK AO2
KRZL 171415Z AUTO 21010G14KT 10SM CLR 12/01 A3029 RMK AO2
KRZL 171355Z AUTO 21010KT 10SM CLR 11/02 A3029 RMK AO2
KRZL 171335Z AUTO 21012KT 10SM CLR 10/02 A3029 RMK AO2
KRZL 171315Z AUTO 21010KT 10SM CLR 09/02 A3029 RMK AO2
KRZL 171255Z AUTO 21006KT 10SM CLR 08/02 A3028 RMK AO2
KRZL 171235Z AUTO 20007KT 10SM CLR 07/02 A3028 RMK AO2
KRZL 171215Z AUTO 20006KT 10SM CLR 07/02 A3028 RMK AO2
KRZL 171155Z AUTO 21007KT 10SM CLR 07/02 A3028 RMK AO2
KRZL 171135Z AUTO 20006KT 10SM CLR 07/02 A3028 RMK AO2
KRZL 171115Z AUTO 21007KT 10SM CLR 07/02 A3029 RMK AO2
KRZL 171055Z AUTO 20007KT 10SM CLR 06/02 A3029 RMK AO2
KRZL 171035Z AUTO 20006KT 10SM CLR 06/02 A3029 RMK AO2
KRZL 171015Z AUTO 20005KT 10SM CLR 06/02 A3028 RMK AO2
KRZL 170955Z AUTO 20006KT 10SM CLR 06/02 A3028 RMK AO2
KRZL 170935Z AUTO 20005KT 10SM CLR 06/02 A3028 RMK AO2
KRZL 170915Z AUTO 21004KT 10SM CLR 06/02 A3027 RMK AO2
KRZL 170855Z AUTO 21005KT 10SM CLR 06/02 A3027 RMK AO2
KRZL 170835Z AUTO 21005KT 10SM CLR 05/02 A3026 RMK AO2
KRZL 170815Z AUTO 20004KT 10SM CLR 05/01 A3025 RMK AO2
KRZL 170755Z AUTO 19003KT 10SM CLR 06/02 A3026 RMK AO2
KRZL 170735Z AUTO 20003KT 10SM CLR 06/02 A3026 RMK AO2
KRZL 170715Z AUTO 00000KT 10SM CLR 06/01 A3026 RMK AO2
KRZL 170655Z AUTO 20003KT 10SM CLR 06/01 A3026 RMK AO2
KRZL 170635Z AUTO 20005KT 10SM CLR 07/01 A3026 RMK AO2
KRZL 170615Z AUTO 20004KT 10SM CLR 06/01 A3025 RMK AO2
KRZL 170555Z AUTO 20005KT 10SM CLR 06/02 A3025 RMK AO2
KRZL 170535Z AUTO 21004KT 10SM CLR 07/02 A3025 RMK AO2
KRZL 170515Z AUTO 22005KT 10SM CLR 07/01 A3025 RMK AO2
KRZL 170455Z AUTO 21005KT 10SM CLR 08/01 A3025 RMK AO2
KRZL 170435Z AUTO 20005KT 10SM CLR 07/01 A3025 RMK AO2
KRZL 170415Z AUTO 20005KT 10SM CLR 07/01 A3025 RMK AO2
KRZL 170355Z AUTO 20005KT 10SM CLR 08/01 A3026 RMK AO2
KRZL 170335Z AUTO 21005KT 10SM CLR 08/00 A3026 RMK AO2
KRZL 170315Z AUTO 20005KT 10SM CLR 08/00 A3027 RMK AO2
KRZL 170255Z AUTO 20003KT 10SM CLR 08/00 A3027 RMK AO2
KRZL 170235Z AUTO 20003KT 10SM CLR 08/00 A3027 RMK AO2
KRZL 170215Z AUTO 20003KT 10SM CLR 08/00 A3026 RMK AO2
KRZL 170155Z AUTO 20003KT 10SM CLR 09/00 A3026 RMK AO2
KRZL 170135Z AUTO 00000KT 10SM CLR 08/01 A3025 RMK AO2
KRZL 170115Z AUTO 00000KT 10SM CLR 10/00 A3025 RMK AO2
KRZL 170055Z AUTO 00000KT 10SM CLR 10/00 A3025 RMK AO2
KRZL 170035Z AUTO 00000KT 10SM CLR 10/00 A3025 RMK AO2
KRZL 170015Z AUTO 00000KT 10SM CLR 12/M02 A3025 RMK AO2
KRZL 162355Z AUTO 21003KT 10SM CLR 12/M02 A3024 RMK AO2
KRZL 162335Z AUTO 00000KT 10SM CLR 12/M02 A3025 RMK AO2
KRZL 162315Z AUTO 24004KT 10SM CLR 13/M03 A3025 RMK AO2
KRZL 162255Z AUTO 24004KT 10SM CLR 15/M04 A3025 RMK AO2
KRZL 162235Z AUTO 24005KT 10SM CLR 16/M06 A3025 RMK AO2
KRZL 162215Z AUTO 24008KT 10SM CLR 16/M06 A3025 RMK AO2
KRZL 162155Z AUTO 25006KT 10SM CLR 17/M07 A3025 RMK AO2
KRZL 162135Z AUTO 26008KT 10SM CLR 17/M06 A3026 RMK AO2
KRZL 162115Z AUTO 26006G15KT 10SM CLR 17/M06 A3026 RMK AO2
KRZL 162055Z AUTO 26008G15KT 10SM CLR 17/M07 A3027 RMK AO2
KRZL 162035Z AUTO 26008G16KT 10SM CLR 17/M07 A3027 RMK AO2
KRZL 162015Z AUTO 26010G16KT 10SM CLR 17/M07 A3028 RMK AO2
KRZL 161955Z AUTO 26009KT 10SM SCT060 17/M07 A3028 RMK AO2